createdAt,value
2023-02-12T00:01:01.570Z,21.88
2023-02-12T00:03:28.583Z,21.86
2023-02-12T00:05:55.739Z,21.86
2023-02-12T00:08:22.795Z,21.86
2023-02-12T00:10:49.615Z,21.85
2023-02-12T00:13:16.496Z,21.83
2023-02-12T00:15:43.486Z,21.83
2023-02-12T00:18:10.804Z,21.83
2023-02-12T00:20:38.507Z,21.80
2023-02-12T00:23:06.100Z,21.78
2023-02-12T00:25:33.325Z,21.76
2023-02-12T00:28:00.169Z,21.74
2023-02-12T00:30:27.021Z,21.71
2023-02-12T00:32:53.899Z,21.70
2023-02-12T00:35:20.816Z,21.67
2023-02-12T00:37:47.781Z,21.67
2023-02-12T00:40:14.636Z,21.66
2023-02-12T00:42:41.493Z,21.63
2023-02-12T00:45:08.808Z,21.61
2023-02-12T00:47:35.661Z,21.58
2023-02-12T00:50:02.743Z,21.54
2023-02-12T00:52:29.581Z,21.52
2023-02-12T00:54:56.408Z,21.51
2023-02-12T00:57:23.370Z,21.49
2023-02-12T00:59:50.269Z,21.45
2023-02-12T01:02:18.387Z,21.46
2023-02-12T01:04:45.436Z,21.43
2023-02-12T01:07:12.309Z,21.40
2023-02-12T01:09:39.220Z,21.40
2023-02-12T01:12:06.511Z,21.42
2023-02-12T01:14:33.500Z,21.39
2023-02-12T01:17:00.424Z,21.36
2023-02-12T01:19:28.092Z,21.34
2023-02-12T01:21:55.045Z,21.32
2023-02-12T01:24:22.057Z,21.28
2023-02-12T01:26:48.941Z,21.27
2023-02-12T01:29:15.764Z,21.25
2023-02-12T01:31:43.081Z,21.23
2023-02-12T01:34:10.805Z,21.23
2023-02-12T01:36:38.163Z,21.20
2023-02-12T01:39:06.181Z,21.19
2023-02-12T01:41:34.594Z,21.16
2023-02-12T01:44:04.390Z,21.15
2023-02-12T01:46:31.095Z,21.13
2023-02-12T01:48:58.170Z,21.12
2023-02-12T01:51:26.230Z,21.11
2023-02-12T01:53:54.624Z,21.09
2023-02-12T01:56:22.019Z,21.08
2023-02-12T01:58:50.863Z,21.06
2023-02-12T02:01:20.026Z,21.07
2023-02-12T02:03:49.136Z,21.05
2023-02-12T02:06:18.488Z,21.04
2023-02-12T02:08:45.636Z,21.00
2023-02-12T02:11:15.898Z,20.98
2023-02-12T02:13:45.645Z,20.97
2023-02-12T02:16:15.736Z,20.91
2023-02-12T02:18:47.338Z,20.92
2023-02-12T02:21:17.307Z,20.92
2023-02-12T02:23:48.921Z,20.89
2023-02-12T02:26:18.808Z,20.87
2023-02-12T02:28:54.866Z,20.87
2023-02-12T02:31:27.769Z,20.86
2023-02-12T02:33:54.957Z,20.83
2023-02-12T02:36:25.843Z,20.82
2023-02-12T02:38:57.519Z,20.82
2023-02-12T02:41:29.299Z,20.82
2023-02-12T02:43:56.505Z,20.78
2023-02-12T02:46:29.337Z,20.76
2023-02-12T02:48:59.102Z,20.77
2023-02-12T02:51:28.832Z,20.76
2023-02-12T02:54:00.865Z,20.78
2023-02-12T02:56:29.346Z,20.74
2023-02-12T02:58:59.510Z,20.70
2023-02-12T03:01:31.454Z,20.73
2023-02-12T03:04:04.284Z,20.73
2023-02-12T03:06:36.561Z,20.71
2023-02-12T03:09:06.944Z,20.67
2023-02-12T03:11:34.719Z,20.69
2023-02-12T03:14:04.475Z,20.65
2023-02-12T03:16:33.256Z,20.66
2023-02-12T03:19:05.975Z,20.64
2023-02-12T03:21:37.792Z,20.63
2023-02-12T03:24:10.928Z,20.60
2023-02-12T03:26:44.308Z,20.58
2023-02-12T03:29:11.745Z,20.61
2023-02-12T03:31:41.578Z,20.57
2023-02-12T03:34:11.410Z,20.56
2023-02-12T03:36:39.453Z,20.55
2023-02-12T03:39:11.816Z,20.53
2023-02-12T03:41:41.606Z,20.53
2023-02-12T03:44:11.420Z,20.52
2023-02-12T03:46:38.520Z,20.50
2023-02-12T03:49:10.412Z,20.50
2023-02-12T03:51:40.135Z,20.48
2023-02-12T03:54:10.806Z,20.46
2023-02-12T03:56:41.991Z,20.45
2023-02-12T03:59:08.728Z,20.44
2023-02-12T04:01:36.318Z,20.42
2023-02-12T04:04:05.708Z,20.38
2023-02-12T04:06:32.740Z,20.37
2023-02-12T04:09:03.383Z,20.35
2023-02-12T04:11:35.290Z,20.35
2023-02-12T04:14:05.317Z,20.35
2023-02-12T04:16:37.932Z,20.34
2023-02-12T04:19:05.310Z,20.31
2023-02-12T04:21:33.362Z,20.30
2023-02-12T04:24:00.539Z,20.30
2023-02-12T04:26:34.592Z,20.29
2023-02-12T04:29:04.431Z,20.26
2023-02-12T04:31:35.802Z,20.28
2023-02-12T04:34:06.199Z,20.26
2023-02-12T04:36:35.725Z,20.23
2023-02-12T04:39:05.095Z,20.23
2023-02-12T04:41:32.071Z,20.22
2023-02-12T04:43:58.754Z,20.21
2023-02-12T04:46:25.555Z,20.20
2023-02-12T04:48:54.762Z,20.17
2023-02-12T04:51:21.478Z,20.17
2023-02-12T04:53:48.193Z,20.14
2023-02-12T04:56:15.024Z,20.15
2023-02-12T04:58:42.210Z,20.15
2023-02-12T05:01:10.291Z,20.12
2023-02-12T05:03:37.352Z,20.12
2023-02-12T05:06:05.396Z,20.11
2023-02-12T05:08:32.175Z,20.11
2023-02-12T05:11:03.739Z,20.06
2023-02-12T05:13:30.799Z,20.07
2023-02-12T05:15:58.244Z,20.08
2023-02-12T05:18:25.166Z,20.07
2023-02-12T05:20:55.124Z,20.05
2023-02-12T05:23:21.830Z,20.04
2023-02-12T05:25:48.560Z,20.03
2023-02-12T05:28:15.744Z,20.04
2023-02-12T05:30:42.548Z,20.02
2023-02-12T05:33:09.282Z,20.02
2023-02-12T05:35:36.219Z,20.00
2023-02-12T05:38:02.895Z,19.98
2023-02-12T05:40:29.615Z,19.95
2023-02-12T05:42:56.357Z,19.97
2023-02-12T05:45:28.145Z,19.94
2023-02-12T05:47:55.726Z,19.94
2023-02-12T05:50:22.409Z,19.94
2023-02-12T05:52:49.146Z,19.91
2023-02-12T05:55:15.834Z,19.88
2023-02-12T05:57:42.957Z,19.91
2023-02-12T06:00:10.333Z,19.89
2023-02-12T06:02:37.668Z,19.90
2023-02-12T06:05:04.847Z,19.89
2023-02-12T06:07:31.633Z,19.85
2023-02-12T06:09:59.422Z,19.84
2023-02-12T06:12:26.477Z,19.83
2023-02-12T06:14:53.605Z,19.81
2023-02-12T06:17:20.385Z,19.80
2023-02-12T06:19:47.166Z,19.79
2023-02-12T06:22:13.955Z,19.80
2023-02-12T06:24:40.620Z,19.77
2023-02-12T06:27:07.285Z,19.77
2023-02-12T06:29:33.943Z,19.76
2023-02-12T06:32:01.089Z,19.76
2023-02-12T06:34:27.864Z,19.75
2023-02-12T06:36:54.923Z,19.75
2023-02-12T06:39:21.680Z,19.74
2023-02-12T06:41:48.827Z,19.73
2023-02-12T06:44:20.904Z,19.73
2023-02-12T06:46:47.889Z,19.75
2023-02-12T06:49:16.911Z,19.70
2023-02-12T06:51:43.697Z,19.70
2023-02-12T06:54:12.894Z,19.70
2023-02-12T06:56:39.914Z,19.69
2023-02-12T06:59:06.620Z,19.69
2023-02-12T07:01:33.354Z,19.69
2023-02-12T07:04:03.822Z,19.68
2023-02-12T07:06:31.186Z,19.65
2023-02-12T07:08:58.607Z,19.66
2023-02-12T07:11:27.935Z,19.65
2023-02-12T07:13:54.660Z,19.66
2023-02-12T07:16:24.883Z,19.64
2023-02-12T07:18:51.708Z,19.61
2023-02-12T07:21:18.754Z,19.68
2023-02-12T07:23:50.867Z,19.67
2023-02-12T07:26:18.774Z,19.76
2023-02-12T07:28:45.464Z,19.82
2023-02-12T07:31:14.067Z,19.85
2023-02-12T07:33:41.349Z,19.90
2023-02-12T07:36:09.770Z,19.94
2023-02-12T07:38:39.994Z,20.00
2023-02-12T07:41:12.213Z,20.04
2023-02-12T07:43:39.961Z,20.09
2023-02-12T07:46:08.024Z,20.13
2023-02-12T07:48:34.851Z,20.19
2023-02-12T07:51:04.867Z,20.24
2023-02-12T07:53:32.043Z,20.31
2023-02-12T07:56:01.836Z,20.37
2023-02-12T07:58:28.550Z,20.41
2023-02-12T08:00:55.311Z,20.48
2023-02-12T08:03:22.047Z,20.56
2023-02-12T08:05:54.801Z,20.61
2023-02-12T08:08:21.770Z,20.67
2023-02-12T08:10:49.052Z,20.72
2023-02-12T08:13:15.741Z,20.75
2023-02-12T08:15:42.865Z,20.82
2023-02-12T08:18:09.596Z,20.85
2023-02-12T08:20:36.345Z,20.90
2023-02-12T08:23:03.211Z,20.94
2023-02-12T08:25:29.882Z,20.98
2023-02-12T08:27:56.602Z,21.01
2023-02-12T08:30:25.811Z,21.04
2023-02-12T08:32:52.658Z,21.06
2023-02-12T08:35:19.390Z,21.08
2023-02-12T08:37:46.166Z,21.11
2023-02-12T08:40:14.026Z,21.12
2023-02-12T08:42:41.449Z,21.14
2023-02-12T08:45:08.627Z,21.17
2023-02-12T08:47:35.346Z,21.18
2023-02-12T08:50:04.373Z,21.20
2023-02-12T08:52:31.092Z,21.19
2023-02-12T08:54:57.784Z,21.21
2023-02-12T08:57:24.496Z,21.23
2023-02-12T08:59:51.570Z,21.24
2023-02-12T09:02:18.936Z,21.25
2023-02-12T09:04:45.682Z,21.24
2023-02-12T09:07:12.760Z,21.25
2023-02-12T09:09:39.504Z,21.26
2023-02-12T09:12:06.228Z,21.26
2023-02-12T09:14:32.963Z,21.28
2023-02-12T09:16:59.729Z,21.24
2023-02-12T09:19:26.555Z,21.23
2023-02-12T09:21:56.022Z,21.25
2023-02-12T09:24:23.540Z,21.23
2023-02-12T09:26:52.843Z,21.24
2023-02-12T09:29:19.545Z,21.25
2023-02-12T09:31:46.660Z,21.23
2023-02-12T09:34:13.486Z,21.21
2023-02-12T09:36:40.313Z,21.20
2023-02-12T09:39:07.065Z,21.20
2023-02-12T09:41:35.506Z,21.21
2023-02-12T09:44:05.281Z,21.19
2023-02-12T09:46:34.811Z,20.99
2023-02-12T09:49:03.814Z,20.57
2023-02-12T09:51:31.600Z,20.27
2023-02-12T09:54:03.138Z,20.22
2023-02-12T09:56:30.944Z,19.94
2023-02-12T09:59:03.962Z,19.88
2023-02-12T10:02:02.055Z,20.14
2023-02-12T10:04:29.447Z,20.28
2023-02-12T10:06:59.426Z,20.31
2023-02-12T10:09:26.537Z,20.35
2023-02-12T10:11:56.733Z,20.40
2023-02-12T10:14:26.612Z,20.46
2023-02-12T10:16:56.487Z,20.51
2023-02-12T10:19:23.632Z,20.55
2023-02-12T10:21:50.878Z,20.60
2023-02-12T10:24:21.354Z,20.64
2023-02-12T10:26:49.774Z,20.66
2023-02-12T10:29:22.596Z,20.70
2023-02-12T10:31:53.469Z,20.73
2023-02-12T10:34:22.778Z,20.76
2023-02-12T10:36:50.654Z,20.79
2023-02-12T10:39:20.383Z,20.80
2023-02-12T10:41:49.764Z,20.84
2023-02-12T10:44:16.832Z,20.85
2023-02-12T10:46:43.734Z,20.89
2023-02-12T10:49:13.806Z,20.92
2023-02-12T10:51:43.565Z,20.94
2023-02-12T10:54:13.380Z,20.96
2023-02-12T10:56:40.171Z,20.97
2023-02-12T10:59:21.544Z,20.98
2023-02-12T11:01:51.392Z,20.99
2023-02-12T11:04:21.287Z,20.98
2023-02-12T11:06:51.160Z,20.97
2023-02-12T11:09:28.545Z,20.98
2023-02-12T11:11:55.549Z,21.00
2023-02-12T11:14:23.136Z,20.99
2023-02-12T11:16:53.459Z,21.00
2023-02-12T11:19:24.598Z,20.99
2023-02-12T11:22:06.388Z,21.00
2023-02-12T11:24:34.868Z,20.99
2023-02-12T11:27:10.008Z,20.99
2023-02-12T11:29:37.361Z,20.99
2023-02-12T11:32:05.718Z,20.98
2023-02-12T11:34:33.325Z,20.96
2023-02-12T11:37:01.761Z,20.98
2023-02-12T11:39:32.728Z,20.96
2023-02-12T11:41:59.853Z,20.94
2023-02-12T11:44:28.810Z,20.90
2023-02-12T11:47:03.977Z,20.93
2023-02-12T11:49:33.912Z,20.92
2023-02-12T11:52:02.473Z,20.90
2023-02-12T11:54:34.511Z,20.88
2023-02-12T11:57:01.589Z,20.85
2023-02-12T11:59:32.350Z,20.84
2023-02-12T12:02:05.266Z,20.84
2023-02-12T12:04:36.777Z,20.81
2023-02-12T12:07:06.610Z,20.77
2023-02-12T12:09:39.887Z,20.72
2023-02-12T12:12:09.786Z,20.72
2023-02-12T12:15:02.328Z,20.67
2023-02-12T12:17:35.211Z,20.65
2023-02-12T12:20:06.995Z,20.64
2023-02-12T12:22:37.685Z,20.59
2023-02-12T12:25:07.480Z,20.55
2023-02-12T12:27:40.925Z,20.53
2023-02-12T12:30:18.845Z,20.51
2023-02-12T12:32:50.532Z,20.52
2023-02-12T12:35:19.066Z,20.45
2023-02-12T12:37:46.313Z,20.43
2023-02-12T12:40:14.530Z,20.44
2023-02-12T12:42:53.457Z,20.43
2023-02-12T12:45:23.302Z,20.42
2023-02-12T12:47:53.112Z,20.41
2023-02-12T12:50:23.209Z,20.39
2023-02-12T12:52:58.642Z,20.37
2023-02-12T12:55:28.798Z,20.38
2023-02-12T12:57:59.217Z,20.35
2023-02-12T13:00:26.374Z,20.43
2023-02-12T13:02:56.268Z,20.35
2023-02-12T13:05:26.215Z,20.32
2023-02-12T13:08:05.252Z,20.30
2023-02-12T13:10:35.164Z,20.31
2023-02-12T13:13:05.291Z,20.29
2023-02-12T13:15:36.755Z,20.26
2023-02-12T13:18:04.285Z,20.25
2023-02-12T13:20:34.931Z,20.43
2023-02-12T13:23:04.763Z,20.47
2023-02-12T13:25:36.304Z,20.46
2023-02-12T13:28:05.271Z,20.35
2023-02-12T13:30:37.572Z,20.45
2023-02-12T13:33:18.697Z,20.41
2023-02-12T13:35:47.691Z,20.40
2023-02-12T13:38:19.599Z,20.41
2023-02-12T13:40:50.172Z,20.41
2023-02-12T13:43:28.930Z,20.40
2023-02-12T13:45:59.191Z,20.35
2023-02-12T13:48:26.506Z,20.26
2023-02-12T13:51:01.323Z,20.29
2023-02-12T13:53:36.459Z,20.25
2023-02-12T13:56:04.534Z,20.24
2023-02-12T13:58:35.510Z,20.20
2023-02-12T14:01:09.563Z,20.20
2023-02-12T14:03:37.277Z,20.16
2023-02-12T14:06:11.347Z,20.17
2023-02-12T14:08:42.429Z,20.15
2023-02-12T14:11:12.717Z,20.14
2023-02-12T14:13:42.524Z,20.13
2023-02-12T14:16:12.417Z,20.13
2023-02-12T14:18:41.514Z,20.14
2023-02-12T14:21:10.718Z,20.20
2023-02-12T14:23:38.500Z,20.24
2023-02-12T14:26:07.032Z,20.28
2023-02-12T14:28:36.929Z,20.30
2023-02-12T14:31:06.956Z,20.34
2023-02-12T14:33:33.747Z,20.37
2023-02-12T14:36:03.607Z,20.40
2023-02-12T14:38:36.813Z,20.44
2023-02-12T14:41:34.333Z,20.47
2023-02-12T14:44:04.112Z,20.50
2023-02-12T14:46:34.422Z,20.54
2023-02-12T14:49:06.258Z,20.54
2023-02-12T14:51:38.570Z,20.56
2023-02-12T14:54:10.731Z,20.59
2023-02-12T14:56:43.241Z,20.59
2023-02-12T14:59:12.911Z,20.63
2023-02-12T15:01:39.798Z,20.63
2023-02-12T15:04:09.584Z,20.65
2023-02-12T15:06:40.119Z,20.65
2023-02-12T15:09:10.154Z,20.65
2023-02-12T15:11:39.954Z,20.68
2023-02-12T15:14:11.824Z,20.68
2023-02-12T15:16:43.183Z,20.69
2023-02-12T15:19:11.499Z,20.70
2023-02-12T15:21:39.029Z,20.70
2023-02-12T15:24:09.323Z,20.72
2023-02-12T15:26:41.585Z,20.69
2023-02-12T15:29:12.702Z,20.68
2023-02-12T15:31:39.586Z,20.68
2023-02-12T15:34:06.865Z,20.68
2023-02-12T15:36:34.479Z,20.67
2023-02-12T15:39:04.606Z,20.65
2023-02-12T15:41:32.765Z,20.64
2023-02-12T15:44:00.800Z,20.63
2023-02-12T15:46:27.907Z,20.64
2023-02-12T15:48:55.923Z,20.62
2023-02-12T15:51:28.936Z,20.62
2023-02-12T15:53:56.972Z,20.62
2023-02-12T15:56:25.208Z,20.63
2023-02-12T15:58:54.072Z,20.60
2023-02-12T16:01:23.164Z,20.62
2023-02-12T16:03:52.878Z,20.61
2023-02-12T16:06:23.831Z,20.60
2023-02-12T16:08:56.018Z,20.57
2023-02-12T16:11:23.611Z,20.56
2023-02-12T16:13:53.701Z,20.56
2023-02-12T16:16:23.339Z,20.56
2023-02-12T16:18:53.228Z,20.55
2023-02-12T16:21:21.604Z,20.54
2023-02-12T16:23:50.469Z,20.50
2023-02-12T16:26:18.755Z,20.50
2023-02-12T16:28:48.632Z,20.49
2023-02-12T16:31:16.876Z,20.45
2023-02-12T16:33:48.050Z,20.44
2023-02-12T16:36:17.908Z,20.42
2023-02-12T16:38:46.890Z,20.41
2023-02-12T16:41:16.896Z,20.41
2023-02-12T16:43:43.956Z,20.37
2023-02-12T16:46:12.114Z,20.33
2023-02-12T16:48:42.202Z,20.31
2023-02-12T16:51:14.831Z,20.30
2023-02-12T16:53:44.671Z,20.28
2023-02-12T16:56:15.664Z,20.26
2023-02-12T16:58:42.828Z,20.21
2023-02-12T17:01:09.616Z,20.20
2023-02-12T17:03:37.812Z,20.19
2023-02-12T17:06:04.793Z,20.19
2023-02-12T17:08:36.883Z,20.17
2023-02-12T17:11:03.679Z,20.17
2023-02-12T17:13:30.571Z,20.17
2023-02-12T17:15:58.962Z,20.15
2023-02-12T17:18:28.889Z,20.14
2023-02-12T17:20:57.356Z,20.13
2023-02-12T17:23:24.576Z,20.13
2023-02-12T17:25:51.698Z,20.12
2023-02-12T17:28:18.495Z,20.11
2023-02-12T17:30:47.934Z,20.11
2023-02-12T17:33:16.065Z,20.11
2023-02-12T17:35:42.841Z,20.09
2023-02-12T17:38:09.829Z,20.10
2023-02-12T17:40:37.191Z,20.10
2023-02-12T17:43:05.710Z,20.09
2023-02-12T17:45:32.746Z,20.07
2023-02-12T17:47:59.580Z,20.07
2023-02-12T17:50:26.451Z,20.06
2023-02-12T17:52:53.312Z,20.14
2023-02-12T17:55:20.133Z,20.17
2023-02-12T17:57:46.931Z,20.18
2023-02-12T18:00:14.318Z,20.20
2023-02-12T18:02:41.170Z,20.22
2023-02-12T18:05:08.406Z,20.28
2023-02-12T18:07:35.784Z,20.32
2023-02-12T18:10:04.889Z,20.37
2023-02-12T18:12:34.789Z,20.40
2023-02-12T18:15:02.606Z,20.45
2023-02-12T18:17:29.633Z,20.49
2023-02-12T18:19:57.402Z,20.52
2023-02-12T18:22:24.536Z,20.54
2023-02-12T18:24:51.629Z,20.56
2023-02-12T18:27:18.849Z,20.59
2023-02-12T18:29:45.746Z,20.62
2023-02-12T18:32:16.590Z,20.64
2023-02-12T18:34:45.807Z,20.67
2023-02-12T18:37:13.954Z,20.68
2023-02-12T18:39:41.016Z,20.69
2023-02-12T18:42:13.856Z,20.69
2023-02-12T18:44:46.695Z,20.69
2023-02-12T18:47:13.490Z,20.70
2023-02-12T18:49:40.199Z,20.69
2023-02-12T18:52:07.700Z,20.71
2023-02-12T18:54:35.128Z,20.71
2023-02-12T18:57:02.179Z,20.71
2023-02-12T18:59:29.020Z,20.73
2023-02-12T19:01:56.001Z,20.73
2023-02-12T19:04:24.262Z,20.72
2023-02-12T19:06:52.550Z,20.72
2023-02-12T19:09:20.483Z,20.72
2023-02-12T19:11:48.454Z,20.72
2023-02-12T19:14:16.379Z,20.69
2023-02-12T19:16:45.132Z,20.68
2023-02-12T19:19:15.361Z,20.71
2023-02-12T19:21:42.615Z,20.67
2023-02-12T19:24:11.291Z,20.65
2023-02-12T19:26:38.131Z,20.64
2023-02-12T19:29:05.516Z,20.63
2023-02-12T19:31:36.220Z,20.61
2023-02-12T19:34:05.430Z,20.61
2023-02-12T19:36:34.056Z,20.59
2023-02-12T19:39:01.333Z,20.56
2023-02-12T19:41:29.112Z,20.62
2023-02-12T19:43:58.403Z,20.62
2023-02-12T19:46:26.159Z,20.62
2023-02-12T19:48:56.004Z,20.61
2023-02-12T19:51:26.441Z,20.59
2023-02-12T19:53:53.765Z,20.59
2023-02-12T19:56:20.871Z,20.57
2023-02-12T19:58:47.672Z,20.57
2023-02-12T20:01:16.774Z,20.56
2023-02-12T20:03:47.432Z,20.51
2023-02-12T20:06:17.359Z,20.50
2023-02-12T20:08:44.543Z,20.50
2023-02-12T20:11:12.691Z,20.46
2023-02-12T20:13:39.498Z,20.41
2023-02-12T20:16:08.072Z,20.41
2023-02-12T20:18:35.368Z,20.39
2023-02-12T20:21:08.044Z,20.37
2023-02-12T20:23:37.936Z,20.34
2023-02-12T20:26:06.386Z,20.34
2023-02-12T20:28:34.608Z,20.30
2023-02-12T20:31:07.938Z,20.29
2023-02-12T20:33:34.706Z,20.28
2023-02-12T20:36:01.362Z,20.25
2023-02-12T20:38:28.777Z,20.24
2023-02-12T20:41:00.746Z,20.22
2023-02-12T20:43:30.969Z,20.22
2023-02-12T20:46:03.674Z,20.19
2023-02-12T20:48:32.819Z,20.20
2023-02-12T20:51:06.189Z,20.19
2023-02-12T20:53:33.993Z,20.19
2023-02-12T20:56:01.690Z,20.26
2023-02-12T20:58:31.827Z,20.33
2023-02-12T21:01:01.624Z,20.34
2023-02-12T21:03:28.326Z,20.36
2023-02-12T21:05:55.394Z,20.38
2023-02-12T21:08:22.345Z,20.41
2023-02-12T21:10:49.472Z,20.44
2023-02-12T21:13:16.154Z,20.48
2023-02-12T21:15:43.020Z,20.49
2023-02-12T21:18:09.809Z,20.53
2023-02-12T21:20:36.503Z,20.54
2023-02-12T21:23:05.721Z,20.56
2023-02-12T21:25:32.522Z,20.57
2023-02-12T21:27:59.306Z,20.61
2023-02-12T21:30:29.170Z,20.64
2023-02-12T21:32:55.955Z,20.66
2023-02-12T21:35:22.718Z,20.67
2023-02-12T21:37:49.436Z,20.69
2023-02-12T21:40:16.291Z,20.69
2023-02-12T21:42:45.216Z,20.70
2023-02-12T21:45:12.618Z,20.69
2023-02-12T21:47:39.408Z,20.70
2023-02-12T21:50:06.741Z,20.69
2023-02-12T21:52:33.514Z,20.71
2023-02-12T21:55:03.430Z,20.70
2023-02-12T21:57:31.297Z,20.70
2023-02-12T21:59:58.088Z,20.68
2023-02-12T22:02:27.098Z,20.70
2023-02-12T22:04:54.531Z,20.71
2023-02-12T22:07:21.299Z,20.70
2023-02-12T22:09:48.476Z,20.68
2023-02-12T22:12:15.196Z,20.69
2023-02-12T22:14:42.102Z,20.69
2023-02-12T22:17:08.963Z,20.69
2023-02-12T22:19:36.180Z,20.69
2023-02-12T22:22:03.314Z,20.69
2023-02-12T22:24:30.248Z,20.71
2023-02-12T22:26:57.182Z,20.68
2023-02-12T22:29:24.135Z,20.65
2023-02-12T22:31:51.217Z,20.62
2023-02-12T22:34:19.227Z,20.59
2023-02-12T22:36:46.258Z,20.58
2023-02-12T22:39:14.400Z,20.58
2023-02-12T22:41:42.629Z,20.56
2023-02-12T22:44:10.418Z,20.55
2023-02-12T22:46:37.294Z,20.49
2023-02-12T22:49:04.509Z,20.50
2023-02-12T22:51:32.396Z,20.48
2023-02-12T22:53:59.610Z,20.47
2023-02-12T22:56:27.041Z,20.55
2023-02-12T22:58:55.249Z,20.55
2023-02-12T23:01:22.146Z,20.58
2023-02-12T23:03:49.149Z,20.54
2023-02-12T23:06:17.433Z,20.47
2023-02-12T23:08:44.725Z,20.44
2023-02-12T23:11:12.183Z,20.40
2023-02-12T23:13:39.344Z,20.40
2023-02-12T23:16:06.697Z,20.37
2023-02-12T23:18:33.891Z,20.37
2023-02-12T23:21:01.177Z,20.37
2023-02-12T23:23:28.381Z,20.36
2023-02-12T23:25:55.448Z,20.32
2023-02-12T23:28:22.680Z,20.31
2023-02-12T23:30:50.279Z,20.31
2023-02-12T23:33:17.343Z,20.27
2023-02-12T23:35:44.532Z,20.29
2023-02-12T23:38:11.684Z,20.25
2023-02-12T23:40:38.776Z,20.29
2023-02-12T23:43:05.830Z,20.29
2023-02-12T23:45:33.148Z,20.25
2023-02-12T23:48:00.001Z,20.20
2023-02-12T23:50:26.980Z,20.19
2023-02-12T23:52:53.846Z,20.18
2023-02-12T23:55:20.641Z,20.16
2023-02-12T23:57:48.139Z,20.15
